sensor_id;sensor_type;location;lat;lon;timestamp;pressure;altitude;pressure_sealevel;temperature;humidity
23574;BME280;11965;53.640;10.050;2023-02-11T00:00:40;102673.03;;;5.35;100.00
23574;BME280;11965;53.640;10.050;2023-02-11T00:03:10;102666.34;;;5.26;100.00
23574;BME280;11965;53.640;10.050;2023-02-11T00:05:37;102668.06;;;5.40;100.00
23574;BME280;11965;53.640;10.050;2023-02-11T00:08:04;102665.09;;;5.43;100.00
23574;BME280;11965;53.640;10.050;2023-02-11T00:10:30;102665.66;;;5.36;100.00
23574;BME280;11965;53.640;10.050;2023-02-11T00:12:57;102673.72;;;5.50;100.00
23574;BME280;11965;53.640;10.050;2023-02-11T00:15:28;102661.97;;;5.48;100.00
23574;BME280;11965;53.640;10.050;2023-02-11T00:17:54;102660.78;;;5.39;100.00
23574;BME280;11965;53.640;10.050;2023-02-11T00:20:22;102667.25;;;5.27;100.00
23574;BME280;11965;53.640;10.050;2023-02-11T00:22:49;102659.56;;;5.19;100.00
23574;BME280;11965;53.640;10.050;2023-02-11T00:25:17;102661.38;;;5.31;100.00
23574;BME280;11965;53.640;10.050;2023-02-11T00:27:44;102659.34;;;5.46;100.00
23574;BME280;11965;53.640;10.050;2023-02-11T00:30:12;102664.59;;;5.25;100.00
23574;BME280;11965;53.640;10.050;2023-02-11T00:32:41;102680.38;;;5.11;100.00
23574;BME280;11965;53.640;10.050;2023-02-11T00:35:08;102678.50;;;5.11;100.00
23574;BME280;11965;53.640;10.050;2023-02-11T00:37:36;102676.19;;;5.05;100.00
23574;BME280;11965;53.640;10.050;2023-02-11T00:40:04;102673.53;;;5.16;100.00
23574;BME280;11965;53.640;10.050;2023-02-11T00:42:34;102662.06;;;5.22;100.00
23574;BME280;11965;53.640;10.050;2023-02-11T00:45:02;102656.16;;;5.16;100.00
23574;BME280;11965;53.640;10.050;2023-02-11T00:47:29;102655.03;;;5.18;100.00
23574;BME280;11965;53.640;10.050;2023-02-11T00:49:56;102654.06;;;5.19;100.00
23574;BME280;11965;53.640;10.050;2023-02-11T00:52:22;102643.06;;;5.19;100.00
23574;BME280;11965;53.640;10.050;2023-02-11T00:54:50;102638.63;;;5.05;100.00
23574;BME280;11965;53.640;10.050;2023-02-11T00:57:21;102631.34;;;5.04;100.00
23574;BME280;11965;53.640;10.050;2023-02-11T00:59:49;102623.75;;;5.08;100.00
23574;BME280;11965;53.640;10.050;2023-02-11T01:02:17;102617.25;;;5.09;100.00
23574;BME280;11965;53.640;10.050;2023-02-11T01:04:47;102621.19;;;5.18;100.00
23574;BME280;11965;53.640;10.050;2023-02-11T01:07:16;102623.09;;;5.04;100.00
23574;BME280;11965;53.640;10.050;2023-02-11T01:09:43;102622.78;;;4.96;100.00
23574;BME280;11965;53.640;10.050;2023-02-11T01:12:12;102627.09;;;5.00;100.00
23574;BME280;11965;53.640;10.050;2023-02-11T01:14:39;102627.03;;;5.13;100.00
23574;BME280;11965;53.640;10.050;2023-02-11T01:17:06;102622.69;;;4.98;100.00
23574;BME280;11965;53.640;10.050;2023-02-11T01:19:36;102618.16;;;4.97;100.00
23574;BME280;11965;53.640;10.050;2023-02-11T01:22:08;102617.81;;;5.01;100.00
23574;BME280;11965;53.640;10.050;2023-02-11T01:24:35;102606.38;;;5.07;100.00
23574;BME280;11965;53.640;10.050;2023-02-11T01:27:02;102607.72;;;5.02;100.00
23574;BME280;11965;53.640;10.050;2023-02-11T01:29:30;102602.69;;;4.96;100.00
23574;BME280;11965;53.640;10.050;2023-02-11T01:31:57;102605.31;;;4.97;100.00
23574;BME280;11965;53.640;10.050;2023-02-11T01:34:25;102606.25;;;5.09;100.00
23574;BME280;11965;53.640;10.050;2023-02-11T01:36:56;102605.25;;;5.10;100.00
23574;BME280;11965;53.640;10.050;2023-02-11T01:39:23;102602.16;;;5.15;100.00
23574;BME280;11965;53.640;10.050;2023-02-11T01:41:50;102600.59;;;5.23;100.00
23574;BME280;11965;53.640;10.050;2023-02-11T01:44:25;102593.81;;;5.16;100.00
23574;BME280;11965;53.640;10.050;2023-02-11T01:46:55;102597.78;;;5.12;100.00
23574;BME280;11965;53.640;10.050;2023-02-11T01:49:25;102601.78;;;5.08;100.00
23574;BME280;11965;53.640;10.050;2023-02-11T01:52:00;102592.56;;;5.20;100.00
23574;BME280;11965;53.640;10.050;2023-02-11T01:54:32;102583.50;;;5.31;100.00
23574;BME280;11965;53.640;10.050;2023-02-11T01:57:23;102588.91;;;5.32;100.00
23574;BME280;11965;53.640;10.050;2023-02-11T01:59:59;102571.56;;;5.43;100.00
23574;BME280;11965;53.640;10.050;2023-02-11T02:02:45;102568.94;;;5.42;100.00
23574;BME280;11965;53.640;10.050;2023-02-11T02:05:23;102580.28;;;5.37;100.00
23574;BME280;11965;53.640;10.050;2023-02-11T02:08:01;102579.25;;;5.27;100.00
23574;BME280;11965;53.640;10.050;2023-02-11T02:10:30;102580.94;;;5.17;100.00
23574;BME280;11965;53.640;10.050;2023-02-11T02:13:00;102578.72;;;5.22;100.00
23574;BME280;11965;53.640;10.050;2023-02-11T02:15:31;102571.41;;;5.34;100.00
23574;BME280;11965;53.640;10.050;2023-02-11T02:18:21;102572.78;;;5.39;100.00
23574;BME280;11965;53.640;10.050;2023-02-11T02:21:20;102568.41;;;5.37;100.00
23574;BME280;11965;53.640;10.050;2023-02-11T02:33:29;102537.72;;;5.54;100.00
23574;BME280;11965;53.640;10.050;2023-02-11T02:36:08;102535.97;;;5.53;100.00
23574;BME280;11965;53.640;10.050;2023-02-11T02:38:46;102524.69;;;5.45;100.00
23574;BME280;11965;53.640;10.050;2023-02-11T02:41:20;102527.44;;;5.45;100.00
23574;BME280;11965;53.640;10.050;2023-02-11T02:43:50;102534.72;;;5.46;100.00
23574;BME280;11965;53.640;10.050;2023-02-11T02:46:20;102524.34;;;5.61;100.00
23574;BME280;11965;53.640;10.050;2023-02-11T02:48:50;102532.47;;;5.51;100.00
23574;BME280;11965;53.640;10.050;2023-02-11T02:51:49;102540.75;;;5.62;100.00
23574;BME280;11965;53.640;10.050;2023-02-11T02:54:57;102538.97;;;5.61;100.00
23574;BME280;11965;53.640;10.050;2023-02-11T02:57:36;102522.34;;;5.51;100.00
23574;BME280;11965;53.640;10.050;2023-02-11T03:00:22;102548.50;;;5.57;100.00
23574;BME280;11965;53.640;10.050;2023-02-11T03:03:03;102539.63;;;5.65;100.00
23574;BME280;11965;53.640;10.050;2023-02-11T03:05:43;102533.13;;;5.66;100.00
23574;BME280;11965;53.640;10.050;2023-02-11T03:08:22;102532.38;;;5.64;100.00
23574;BME280;11965;53.640;10.050;2023-02-11T03:10:54;102532.00;;;5.57;100.00
23574;BME280;11965;53.640;10.050;2023-02-11T03:13:28;102525.88;;;5.65;100.00
23574;BME280;11965;53.640;10.050;2023-02-11T03:16:03;102521.88;;;5.69;100.00
23574;BME280;11965;53.640;10.050;2023-02-11T03:18:36;102525.03;;;5.75;100.00
23574;BME280;11965;53.640;10.050;2023-02-11T03:21:08;102518.53;;;5.76;100.00
23574;BME280;11965;53.640;10.050;2023-02-11T03:23:40;102529.28;;;5.80;100.00
23574;BME280;11965;53.640;10.050;2023-02-11T03:26:15;102520.63;;;5.62;100.00
23574;BME280;11965;53.640;10.050;2023-02-11T03:28:53;102518.22;;;5.57;100.00
23574;BME280;11965;53.640;10.050;2023-02-11T03:31:30;102510.34;;;5.64;100.00
23574;BME280;11965;53.640;10.050;2023-02-11T03:34:07;102514.50;;;5.69;100.00
23574;BME280;11965;53.640;10.050;2023-02-11T03:36:43;102508.53;;;5.75;100.00
23574;BME280;11965;53.640;10.050;2023-02-11T03:39:16;102496.16;;;5.81;100.00
23574;BME280;11965;53.640;10.050;2023-02-11T03:41:48;102495.25;;;5.69;100.00
23574;BME280;11965;53.640;10.050;2023-02-11T03:44:20;102502.88;;;5.66;100.00
23574;BME280;11965;53.640;10.050;2023-02-11T03:46:50;102492.13;;;5.74;100.00
23574;BME280;11965;53.640;10.050;2023-02-11T03:49:21;102481.75;;;5.78;100.00
23574;BME280;11965;53.640;10.050;2023-02-11T03:51:56;102476.88;;;5.70;100.00
23574;BME280;11965;53.640;10.050;2023-02-11T03:54:28;102479.75;;;5.68;100.00
23574;BME280;11965;53.640;10.050;2023-02-11T03:57:00;102474.75;;;5.85;100.00
23574;BME280;11965;53.640;10.050;2023-02-11T03:59:28;102472.03;;;5.96;100.00
23574;BME280;11965;53.640;10.050;2023-02-11T04:01:57;102480.69;;;6.03;100.00
23574;BME280;11965;53.640;10.050;2023-02-11T04:04:27;102485.56;;;6.10;100.00
23574;BME280;11965;53.640;10.050;2023-02-11T04:06:57;102474.66;;;5.97;100.00
23574;BME280;11965;53.640;10.050;2023-02-11T04:09:23;102496.16;;;5.92;100.00
23574;BME280;11965;53.640;10.050;2023-02-11T04:11:50;102492.41;;;5.93;100.00
23574;BME280;11965;53.640;10.050;2023-02-11T04:14:21;102498.69;;;5.95;100.00
23574;BME280;11965;53.640;10.050;2023-02-11T04:16:49;102496.19;;;6.15;100.00
23574;BME280;11965;53.640;10.050;2023-02-11T04:19:16;102506.47;;;6.13;100.00
23574;BME280;11965;53.640;10.050;2023-02-11T04:21:43;102495.56;;;6.11;100.00
23574;BME280;11965;53.640;10.050;2023-02-11T04:24:12;102504.19;;;6.07;100.00
23574;BME280;11965;53.640;10.050;2023-02-11T04:26:39;102502.09;;;6.10;100.00
23574;BME280;11965;53.640;10.050;2023-02-11T04:29:06;102502.69;;;6.25;100.00
23574;BME280;11965;53.640;10.050;2023-02-11T04:31:32;102511.72;;;6.27;100.00
23574;BME280;11965;53.640;10.050;2023-02-11T04:33:59;102505.56;;;6.35;100.00
23574;BME280;11965;53.640;10.050;2023-02-11T04:36:26;102517.34;;;6.37;100.00
23574;BME280;11965;53.640;10.050;2023-02-11T04:38:53;102513.84;;;6.35;100.00
23574;BME280;11965;53.640;10.050;2023-02-11T04:41:22;102518.34;;;6.36;100.00
23574;BME280;11965;53.640;10.050;2023-02-11T04:43:51;102505.84;;;6.32;100.00
23574;BME280;11965;53.640;10.050;2023-02-11T04:46:17;102506.78;;;6.42;100.00
23574;BME280;11965;53.640;10.050;2023-02-11T04:48:47;102501.78;;;6.47;100.00
23574;BME280;11965;53.640;10.050;2023-02-11T04:51:16;102499.56;;;6.41;100.00
23574;BME280;11965;53.640;10.050;2023-02-11T04:53:45;102501.44;;;6.40;100.00
23574;BME280;11965;53.640;10.050;2023-02-11T04:56:20;102507.56;;;6.44;100.00
23574;BME280;11965;53.640;10.050;2023-02-11T04:58:48;102508.69;;;6.41;100.00
23574;BME280;11965;53.640;10.050;2023-02-11T05:01:15;102508.06;;;6.49;100.00
23574;BME280;11965;53.640;10.050;2023-02-11T05:03:45;102507.97;;;6.39;100.00
23574;BME280;11965;53.640;10.050;2023-02-11T05:06:12;102519.22;;;6.48;100.00
23574;BME280;11965;53.640;10.050;2023-02-11T05:08:42;102524.22;;;6.43;100.00
23574;BME280;11965;53.640;10.050;2023-02-11T05:11:14;102523.84;;;6.36;100.00
23574;BME280;11965;53.640;10.050;2023-02-11T05:13:42;102513.84;;;6.35;100.00
23574;BME280;11965;53.640;10.050;2023-02-11T05:16:11;102530.88;;;6.29;100.00
23574;BME280;11965;53.640;10.050;2023-02-11T05:18:39;102519.69;;;6.41;100.00
23574;BME280;11965;53.640;10.050;2023-02-11T05:21:07;102519.72;;;6.30;100.00
23574;BME280;11965;53.640;10.050;2023-02-11T05:23:34;102508.84;;;6.40;100.00
23574;BME280;11965;53.640;10.050;2023-02-11T05:26:02;102510.06;;;6.47;100.00
23574;BME280;11965;53.640;10.050;2023-02-11T05:28:29;102504.81;;;6.44;100.00
23574;BME280;11965;53.640;10.050;2023-02-11T05:30:56;102499.69;;;6.39;100.00
23574;BME280;11965;53.640;10.050;2023-02-11T05:33:24;102491.19;;;6.43;100.00
23574;BME280;11965;53.640;10.050;2023-02-11T05:36:00;102485.94;;;6.39;100.00
23574;BME280;11965;53.640;10.050;2023-02-11T05:38:30;102489.31;;;6.32;100.00
23574;BME280;11965;53.640;10.050;2023-02-11T05:40:58;102480.03;;;6.33;100.00
23574;BME280;11965;53.640;10.050;2023-02-11T05:43:33;102474.00;;;6.39;100.00
23574;BME280;11965;53.640;10.050;2023-02-11T05:46:03;102457.13;;;6.32;100.00
23574;BME280;11965;53.640;10.050;2023-02-11T05:48:32;102457.50;;;6.28;100.00
23574;BME280;11965;53.640;10.050;2023-02-11T05:50:59;102463.91;;;6.39;100.00
23574;BME280;11965;53.640;10.050;2023-02-11T05:53:26;102471.28;;;6.28;100.00
23574;BME280;11965;53.640;10.050;2023-02-11T05:55:53;102475.41;;;6.33;100.00
23574;BME280;11965;53.640;10.050;2023-02-11T05:58:20;102479.03;;;6.45;100.00
23574;BME280;11965;53.640;10.050;2023-02-11T06:00:46;102481.78;;;6.45;100.00
23574;BME280;11965;53.640;10.050;2023-02-11T06:03:14;102479.25;;;6.42;100.00
23574;BME280;11965;53.640;10.050;2023-02-11T06:05:43;102465.63;;;6.40;100.00
23574;BME280;11965;53.640;10.050;2023-02-11T06:08:12;102462.63;;;6.44;100.00
23574;BME280;11965;53.640;10.050;2023-02-11T06:10:39;102446.47;;;6.39;100.00
23574;BME280;11965;53.640;10.050;2023-02-11T06:13:09;102443.59;;;6.40;100.00
23574;BME280;11965;53.640;10.050;2023-02-11T06:15:36;102444.19;;;6.44;100.00
23574;BME280;11965;53.640;10.050;2023-02-11T06:18:03;102455.94;;;6.57;100.00
23574;BME280;11965;53.640;10.050;2023-02-11T06:20:30;102470.25;;;6.51;100.00
23574;BME280;11965;53.640;10.050;2023-02-11T06:22:59;102480.47;;;6.72;100.00
23574;BME280;11965;53.640;10.050;2023-02-11T06:25:26;102481.38;;;6.61;100.00
23574;BME280;11965;53.640;10.050;2023-02-11T06:27:53;102488.63;;;6.62;100.00
23574;BME280;11965;53.640;10.050;2023-02-11T06:30:20;102499.00;;;6.70;100.00
23574;BME280;11965;53.640;10.050;2023-02-11T06:32:47;102502.41;;;6.62;100.00
23574;BME280;11965;53.640;10.050;2023-02-11T06:35:14;102512.28;;;6.64;100.00
23574;BME280;11965;53.640;10.050;2023-02-11T06:37:41;102497.63;;;6.75;100.00
23574;BME280;11965;53.640;10.050;2023-02-11T06:40:10;102512.91;;;6.68;100.00
23574;BME280;11965;53.640;10.050;2023-02-11T06:42:37;102506.25;;;6.71;100.00
23574;BME280;11965;53.640;10.050;2023-02-11T06:45:05;102498.47;;;6.76;100.00
23574;BME280;11965;53.640;10.050;2023-02-11T06:47:36;102509.53;;;6.64;100.00
23574;BME280;11965;53.640;10.050;2023-02-11T06:50:03;102510.53;;;6.63;100.00
23574;BME280;11965;53.640;10.050;2023-02-11T06:52:35;102507.53;;;6.67;100.00
23574;BME280;11965;53.640;10.050;2023-02-11T06:55:02;102515.13;;;6.74;100.00
23574;BME280;11965;53.640;10.050;2023-02-11T06:57:31;102512.78;;;6.70;100.00
23574;BME280;11965;53.640;10.050;2023-02-11T06:59:58;102519.69;;;6.64;100.00
23574;BME280;11965;53.640;10.050;2023-02-11T07:02:30;102529.06;;;6.73;100.00
23574;BME280;11965;53.640;10.050;2023-02-11T07:04:56;102514.28;;;6.62;100.00
23574;BME280;11965;53.640;10.050;2023-02-11T07:07:23;102540.09;;;6.61;100.00
23574;BME280;11965;53.640;10.050;2023-02-11T07:09:50;102527.56;;;6.80;100.00
23574;BME280;11965;53.640;10.050;2023-02-11T07:12:17;102532.84;;;6.72;100.00
23574;BME280;11965;53.640;10.050;2023-02-11T07:14:45;102524.66;;;6.81;100.00
23574;BME280;11965;53.640;10.050;2023-02-11T07:17:12;102540.09;;;6.73;100.00
23574;BME280;11965;53.640;10.050;2023-02-11T07:19:39;102546.34;;;6.63;100.00
23574;BME280;11965;53.640;10.050;2023-02-11T07:22:06;102536.69;;;6.80;100.00
23574;BME280;11965;53.640;10.050;2023-02-11T07:24:33;102538.09;;;6.75;100.00
23574;BME280;11965;53.640;10.050;2023-02-11T07:27:00;102530.53;;;6.77;100.00
23574;BME280;11965;53.640;10.050;2023-02-11T07:29:27;102530.53;;;6.88;100.00
23574;BME280;11965;53.640;10.050;2023-02-11T07:31:55;102524.31;;;6.75;100.00
23574;BME280;11965;53.640;10.050;2023-02-11T07:34:22;102527.19;;;6.73;100.00
23574;BME280;11965;53.640;10.050;2023-02-11T07:36:49;102527.56;;;6.69;100.00
23574;BME280;11965;53.640;10.050;2023-02-11T07:39:19;102527.03;;;6.86;100.00
23574;BME280;11965;53.640;10.050;2023-02-11T07:41:47;102539.19;;;6.83;100.00
23574;BME280;11965;53.640;10.050;2023-02-11T07:44:14;102541.34;;;6.80;100.00
23574;BME280;11965;53.640;10.050;2023-02-11T07:46:41;102556.84;;;6.81;100.00
23574;BME280;11965;53.640;10.050;2023-02-11T07:49:11;102568.91;;;6.80;100.00
23574;BME280;11965;53.640;10.050;2023-02-11T07:51:38;102585.41;;;6.91;100.00
23574;BME280;11965;53.640;10.050;2023-02-11T07:54:05;102577.00;;;6.93;100.00
23574;BME280;11965;53.640;10.050;2023-02-11T07:56:32;102579.38;;;6.97;100.00
23574;BME280;11965;53.640;10.050;2023-02-11T07:59:01;102582.66;;;6.91;100.00
23574;BME280;11965;53.640;10.050;2023-02-11T08:01:29;102578.53;;;6.85;100.00
23574;BME280;11965;53.640;10.050;2023-02-11T08:04:02;102575.13;;;6.93;100.00
23574;BME280;11965;53.640;10.050;2023-02-11T08:06:32;102585.91;;;6.85;100.00
23574;BME280;11965;53.640;10.050;2023-02-11T08:09:04;102572.34;;;7.04;100.00
23574;BME280;11965;53.640;10.050;2023-02-11T08:11:34;102591.50;;;7.06;100.00
23574;BME280;11965;53.640;10.050;2023-02-11T08:14:02;102583.22;;;7.06;100.00
23574;BME280;11965;53.640;10.050;2023-02-11T08:16:32;102595.53;;;7.02;100.00
23574;BME280;11965;53.640;10.050;2023-02-11T08:19:01;102574.47;;;7.12;100.00
23574;BME280;11965;53.640;10.050;2023-02-11T08:21:30;102587.47;;;7.21;100.00
23574;BME280;11965;53.640;10.050;2023-02-11T08:23:57;102597.50;;;7.11;100.00
23574;BME280;11965;53.640;10.050;2023-02-11T08:26:27;102608.53;;;7.11;100.00
23574;BME280;11965;53.640;10.050;2023-02-11T08:28:55;102605.25;;;7.28;100.00
23574;BME280;11965;53.640;10.050;2023-02-11T08:31:25;102608.50;;;7.34;100.00
23574;BME280;11965;53.640;10.050;2023-02-11T08:33:53;102614.41;;;7.29;100.00
23574;BME280;11965;53.640;10.050;2023-02-11T08:36:27;102629.44;;;7.36;100.00
23574;BME280;11965;53.640;10.050;2023-02-11T08:38:59;102624.16;;;7.33;100.00
23574;BME280;11965;53.640;10.050;2023-02-11T08:41:28;102631.53;;;7.33;100.00
23574;BME280;11965;53.640;10.050;2023-02-11T08:43:59;102642.09;;;7.27;100.00
23574;BME280;11965;53.640;10.050;2023-02-11T08:46:26;102627.06;;;7.32;100.00
23574;BME280;11965;53.640;10.050;2023-02-11T08:48:53;102632.31;;;7.35;100.00
23574;BME280;11965;53.640;10.050;2023-02-11T08:51:22;102634.41;;;7.42;100.00
23574;BME280;11965;53.640;10.050;2023-02-11T08:53:50;102631.06;;;7.27;100.00
23574;BME280;11965;53.640;10.050;2023-02-11T08:56:20;102626.91;;;7.33;100.00
23574;BME280;11965;53.640;10.050;2023-02-11T08:58:51;102624.66;;;7.27;100.00
23574;BME280;11965;53.640;10.050;2023-02-11T09:01:22;102630.31;;;7.37;100.00
23574;BME280;11965;53.640;10.050;2023-02-11T09:03:49;102618.25;;;7.38;100.00
23574;BME280;11965;53.640;10.050;2023-02-11T09:06:18;102636.53;;;7.39;100.00
23574;BME280;11965;53.640;10.050;2023-02-11T09:08:49;102623.97;;;7.46;100.00
23574;BME280;11965;53.640;10.050;2023-02-11T09:11:19;102616.84;;;7.43;100.00
23574;BME280;11965;53.640;10.050;2023-02-11T09:13:47;102619.59;;;7.43;100.00
23574;BME280;11965;53.640;10.050;2023-02-11T09:16:16;102617.94;;;7.52;100.00
23574;BME280;11965;53.640;10.050;2023-02-11T09:18:49;102629.38;;;7.47;100.00
23574;BME280;11965;53.640;10.050;2023-02-11T09:21:18;102627.34;;;7.61;100.00
23574;BME280;11965;53.640;10.050;2023-02-11T09:23:46;102636.59;;;7.60;100.00
23574;BME280;11965;53.640;10.050;2023-02-11T09:26:20;102635.34;;;7.64;100.00
23574;BME280;11965;53.640;10.050;2023-02-11T09:28:47;102645.25;;;7.66;100.00
23574;BME280;11965;53.640;10.050;2023-02-11T09:31:20;102641.34;;;7.69;100.00
23574;BME280;11965;53.640;10.050;2023-02-11T09:33:49;102656.03;;;7.69;100.00
23574;BME280;11965;53.640;10.050;2023-02-11T09:36:19;102656.06;;;7.58;100.00
23574;BME280;11965;53.640;10.050;2023-02-11T09:38:47;102660.13;;;7.75;100.00
23574;BME280;11965;53.640;10.050;2023-02-11T09:41:52;102651.94;;;7.85;100.00
23574;BME280;11965;53.640;10.050;2023-02-11T09:44:23;102646.63;;;7.93;100.00
23574;BME280;11965;53.640;10.050;2023-02-11T09:46:54;102647.69;;;7.81;100.00
23574;BME280;11965;53.640;10.050;2023-02-11T09:49:29;102648.75;;;7.89;100.00
23574;BME280;11965;53.640;10.050;2023-02-11T09:52:04;102641.91;;;8.05;100.00
23574;BME280;11965;53.640;10.050;2023-02-11T09:54:38;102651.22;;;8.04;100.00
23574;BME280;11965;53.640;10.050;2023-02-11T09:57:11;102655.25;;;8.00;100.00
23574;BME280;11965;53.640;10.050;2023-02-11T09:59:41;102662.94;;;7.96;100.00
23574;BME280;11965;53.640;10.050;2023-02-11T10:02:19;102665.06;;;7.92;100.00
23574;BME280;11965;53.640;10.050;2023-02-11T10:05:12;102658.16;;;7.98;100.00
23574;BME280;11965;53.640;10.050;2023-02-11T10:07:54;102662.19;;;7.94;100.00
23574;BME280;11965;53.640;10.050;2023-02-11T10:10:38;102669.88;;;7.90;100.00
23574;BME280;11965;53.640;10.050;2023-02-11T10:13:28;102679.78;;;7.93;100.00
23574;BME280;11965;53.640;10.050;2023-02-11T10:16:08;102676.34;;;8.01;100.00
23574;BME280;11965;53.640;10.050;2023-02-11T10:18:59;102678.47;;;7.97;100.00
23574;BME280;11965;53.640;10.050;2023-02-11T10:21:39;102677.81;;;8.05;100.00
23574;BME280;11965;53.640;10.050;2023-02-11T10:24:15;102682.81;;;7.90;100.00
23574;BME280;11965;53.640;10.050;2023-02-11T10:26:43;102687.41;;;8.01;100.00
23574;BME280;11965;53.640;10.050;2023-02-11T10:29:30;102690.16;;;8.01;100.00
23574;BME280;11965;53.640;10.050;2023-02-11T10:32:03;102701.44;;;7.97;100.00
23574;BME280;11965;53.640;10.050;2023-02-11T10:34:33;102698.69;;;7.97;100.00
23574;BME280;11965;53.640;10.050;2023-02-11T10:37:04;102703.69;;;8.04;100.00
23574;BME280;11965;53.640;10.050;2023-02-11T10:39:31;102701.19;;;8.01;100.00
23574;BME280;11965;53.640;10.050;2023-02-11T10:42:04;102676.78;;;8.06;100.00
23574;BME280;11965;53.640;10.050;2023-02-11T10:44:39;102670.41;;;8.05;100.00
23574;BME280;11965;53.640;10.050;2023-02-11T10:47:16;102660.50;;;8.24;100.00
23574;BME280;11965;53.640;10.050;2023-02-11T10:49:49;102663.47;;;8.32;100.00
23574;BME280;11965;53.640;10.050;2023-02-11T10:52:21;102671.91;;;8.30;100.00
23574;BME280;11965;53.640;10.050;2023-02-11T10:55:01;102657.47;;;8.27;100.00
23574;BME280;11965;53.640;10.050;2023-02-11T10:57:39;102652.81;;;8.27;100.00
23574;BME280;11965;53.640;10.050;2023-02-11T11:00:32;102662.47;;;8.33;100.00
23574;BME280;11965;53.640;10.050;2023-02-11T11:03:04;102666.19;;;8.43;100.00
23574;BME280;11965;53.640;10.050;2023-02-11T11:05:35;102650.75;;;8.40;100.00
23574;BME280;11965;53.640;10.050;2023-02-11T11:08:05;102651.16;;;8.36;100.00
23574;BME280;11965;53.640;10.050;2023-02-11T11:10:39;102642.50;;;8.29;100.00
23574;BME280;11965;53.640;10.050;2023-02-11T11:13:30;102648.00;;;8.40;100.00
23574;BME280;11965;53.640;10.050;2023-02-11T11:16:19;102658.16;;;8.40;100.00
23574;BME280;11965;53.640;10.050;2023-02-11T11:18:49;102674.13;;;8.36;100.00
23574;BME280;11965;53.640;10.050;2023-02-11T11:21:25;102663.44;;;8.22;100.00
23574;BME280;11965;53.640;10.050;2023-02-11T11:23:56;102681.38;;;8.37;100.00
23574;BME280;11965;53.640;10.050;2023-02-11T11:26:24;102694.34;;;8.37;100.00
23574;BME280;11965;53.640;10.050;2023-02-11T11:28:56;102686.13;;;8.26;100.00
23574;BME280;11965;53.640;10.050;2023-02-11T11:31:33;102669.53;;;8.26;100.00
23574;BME280;11965;53.640;10.050;2023-02-11T11:34:18;102662.03;;;8.37;100.00
23574;BME280;11965;53.640;10.050;2023-02-11T11:36:48;102667.97;;;8.44;100.00
23574;BME280;11965;53.640;10.050;2023-02-11T11:39:22;102664.31;;;8.44;100.00
23574;BME280;11965;53.640;10.050;2023-02-11T11:42:00;102671.03;;;8.51;100.00
23574;BME280;11965;53.640;10.050;2023-02-11T11:44:30;102681.97;;;8.52;100.00
23574;BME280;11965;53.640;10.050;2023-02-11T11:47:22;102692.28;;;8.50;100.00
23574;BME280;11965;53.640;10.050;2023-02-11T11:52:55;102721.34;;;8.66;100.00
23574;BME280;11965;53.640;10.050;2023-02-11T11:55:32;102707.44;;;8.56;100.00
23574;BME280;11965;53.640;10.050;2023-02-11T11:58:00;102708.59;;;8.53;100.00
23574;BME280;11965;53.640;10.050;2023-02-11T12:00:34;102711.75;;;8.49;100.00
23574;BME280;11965;53.640;10.050;2023-02-11T12:03:56;102712.22;;;8.54;100.00
23574;BME280;11965;53.640;10.050;2023-02-11T12:06:40;102715.66;;;8.67;100.00
23574;BME280;11965;53.640;10.050;2023-02-11T12:09:19;102711.25;;;8.65;100.00
23574;BME280;11965;53.640;10.050;2023-02-11T12:12:05;102712.75;;;8.69;100.00
23574;BME280;11965;53.640;10.050;2023-02-11T12:14:46;102729.00;;;8.62;100.00
23574;BME280;11965;53.640;10.050;2023-02-11T12:17:30;102738.88;;;8.55;100.00
23574;BME280;11965;53.640;10.050;2023-02-11T12:20:18;102723.06;;;8.46;100.00
23574;BME280;11965;53.640;10.050;2023-02-11T12:22:59;102728.00;;;8.42;100.00
23574;BME280;11965;53.640;10.050;2023-02-11T12:25:38;102719.59;;;8.32;100.00
23574;BME280;11965;53.640;10.050;2023-02-11T12:28:17;102706.25;;;8.37;100.00
23574;BME280;11965;53.640;10.050;2023-02-11T12:31:05;102718.72;;;8.32;100.00
23574;BME280;11965;53.640;10.050;2023-02-11T12:33:58;102726.69;;;8.25;100.00
23574;BME280;11965;53.640;10.050;2023-02-11T12:36:44;102718.88;;;8.30;100.00
23574;BME280;11965;53.640;10.050;2023-02-11T12:39:26;102705.78;;;8.32;100.00
23574;BME280;11965;53.640;10.050;2023-02-11T12:45:24;102718.13;;;8.70;100.00
23574;BME280;11965;53.640;10.050;2023-02-11T12:48:09;102722.56;;;8.52;100.00
23574;BME280;11965;53.640;10.050;2023-02-11T12:50:48;102707.84;;;8.51;100.00
23574;BME280;11965;53.640;10.050;2023-02-11T12:53:35;102704.75;;;8.66;100.00
23574;BME280;11965;53.640;10.050;2023-02-11T12:56:16;102707.50;;;8.66;100.00
23574;BME280;11965;53.640;10.050;2023-02-11T12:58:49;102718.41;;;8.67;100.00
23574;BME280;11965;53.640;10.050;2023-02-11T13:01:24;102714.69;;;8.57;100.00
23574;BME280;11965;53.640;10.050;2023-02-11T13:04:00;102717.06;;;8.61;100.00
23574;BME280;11965;53.640;10.050;2023-02-11T13:06:34;102712.84;;;8.57;100.00
23574;BME280;11965;53.640;10.050;2023-02-11T13:09:12;102723.94;;;8.67;100.00
23574;BME280;11965;53.640;10.050;2023-02-11T13:11:48;102733.53;;;8.63;100.00
23574;BME280;11965;53.640;10.050;2023-02-11T13:14:24;102729.38;;;8.78;100.00
23574;BME280;11965;53.640;10.050;2023-02-11T13:16:53;102720.22;;;8.78;100.00
23574;BME280;11965;53.640;10.050;2023-02-11T13:19:28;102736.69;;;8.79;100.00
23574;BME280;11965;53.640;10.050;2023-02-11T13:22:16;102722.25;;;8.76;100.00